createdAt,value
2018-04-09T00:00:13.300Z,0.00
2018-04-09T00:01:13.209Z,0.00
2018-04-09T00:02:13.319Z,0.00
2018-04-09T00:03:13.231Z,0.00
2018-04-09T00:04:13.348Z,0.00
2018-04-09T00:05:13.259Z,0.00
2018-04-09T00:06:13.347Z,0.00
2018-04-09T00:07:13.278Z,0.00
2018-04-09T00:08:13.361Z,0.00
2018-04-09T00:09:13.313Z,0.00
2018-04-09T00:10:13.376Z,0.00
2018-04-09T00:11:13.328Z,0.00
2018-04-09T00:12:13.493Z,0.00
2018-04-09T00:13:13.349Z,0.00
2018-04-09T00:14:13.496Z,0.00
2018-04-09T00:15:13.384Z,0.00
2018-04-09T00:16:13.532Z,0.00
2018-04-09T00:17:13.408Z,0.00
2018-04-09T00:18:13.538Z,0.00
2018-04-09T00:19:13.438Z,0.00
2018-04-09T00:20:13.551Z,0.00
2018-04-09T00:21:13.463Z,0.00
2018-04-09T00:22:13.554Z,0.00
2018-04-09T00:23:13.482Z,0.00
2018-04-09T00:24:13.582Z,0.00
2018-04-09T00:25:13.523Z,0.00
2018-04-09T00:26:13.687Z,0.00
2018-04-09T00:27:13.537Z,0.00
2018-04-09T00:28:13.709Z,0.00
2018-04-09T00:29:13.559Z,0.00
2018-04-09T00:30:13.718Z,0.00
2018-04-09T00:31:13.588Z,0.00
2018-04-09T00:32:13.731Z,0.00
2018-04-09T00:33:13.605Z,0.00
2018-04-09T00:34:13.752Z,0.00
2018-04-09T00:35:13.632Z,0.00
2018-04-09T00:36:13.753Z,0.00
2018-04-09T00:37:13.657Z,0.00
2018-04-09T00:38:13.776Z,0.00
2018-04-09T00:39:13.693Z,0.00
2018-04-09T00:40:13.785Z,0.00
2018-04-09T00:41:13.711Z,0.00
2018-04-09T00:42:13.792Z,0.00
2018-04-09T00:43:13.740Z,0.00
2018-04-09T00:44:13.921Z,0.00
2018-04-09T00:45:13.758Z,0.00
2018-04-09T00:46:14.845Z,0.00
2018-04-09T00:47:13.785Z,0.00
2018-04-09T00:48:13.938Z,0.00
2018-04-09T00:49:13.810Z,0.00
2018-04-09T00:50:13.956Z,0.00
2018-04-09T00:51:13.836Z,0.00
2018-04-09T00:52:13.964Z,0.00
2018-04-09T00:53:13.863Z,0.00
2018-04-09T00:54:13.989Z,0.00
2018-04-09T00:55:13.883Z,0.00
2018-04-09T00:56:13.995Z,0.00
2018-04-09T00:57:13.915Z,0.00
2018-04-09T00:58:14.004Z,0.00
2018-04-09T00:59:13.937Z,0.00
2018-04-09T01:00:14.127Z,0.00
2018-04-09T01:01:13.965Z,0.00
2018-04-09T01:02:14.136Z,0.00
2018-04-09T01:03:13.990Z,0.00
2018-04-09T01:04:14.154Z,0.00
2018-04-09T01:05:14.018Z,0.00
2018-04-09T01:06:14.167Z,0.00
2018-04-09T01:07:14.029Z,0.00
2018-04-09T01:08:14.174Z,0.00
2018-04-09T01:09:14.062Z,0.00
2018-04-09T01:10:14.186Z,0.00
2018-04-09T01:11:14.087Z,0.00
2018-04-09T01:12:14.203Z,0.00
2018-04-09T01:13:14.110Z,0.00
2018-04-09T01:14:14.218Z,0.00
2018-04-09T01:15:14.134Z,0.00
2018-04-09T01:16:14.228Z,0.00
2018-04-09T01:17:14.157Z,0.00
2018-04-09T01:18:14.346Z,0.00
2018-04-09T01:19:14.184Z,0.00
2018-04-09T01:20:15.283Z,0.00
2018-04-09T01:21:14.212Z,0.00
2018-04-09T01:22:14.373Z,0.00
2018-04-09T01:23:14.234Z,0.00
2018-04-09T01:24:14.386Z,0.00
2018-04-09T01:25:14.260Z,0.00
2018-04-09T01:26:14.399Z,0.00
2018-04-09T01:27:14.300Z,0.00
2018-04-09T01:28:14.411Z,0.00
2018-04-09T01:29:14.310Z,0.00
2018-04-09T01:30:14.429Z,0.00
2018-04-09T01:31:14.352Z,0.00
2018-04-09T01:32:14.447Z,0.00
2018-04-09T01:33:14.354Z,0.00
2018-04-09T01:34:15.482Z,0.00
2018-04-09T01:35:14.378Z,0.00
2018-04-09T01:36:14.585Z,0.00
2018-04-09T01:37:14.404Z,0.00
2018-04-09T01:38:14.598Z,0.00
2018-04-09T01:39:14.428Z,0.00
2018-04-09T01:40:14.599Z,0.00
2018-04-09T01:41:14.488Z,0.00
2018-04-09T01:42:14.613Z,0.00
2018-04-09T01:43:14.480Z,0.00
2018-04-09T01:44:14.631Z,0.00
2018-04-09T01:45:14.504Z,0.00
2018-04-09T01:46:14.639Z,0.00
2018-04-09T01:47:14.532Z,0.00
2018-04-09T01:48:14.655Z,0.00
2018-04-09T01:49:14.557Z,0.00
2018-04-09T01:50:14.667Z,0.00
2018-04-09T01:51:14.597Z,0.00
2018-04-09T01:52:14.685Z,0.00
2018-04-09T01:53:14.598Z,0.00
2018-04-09T01:54:14.801Z,0.00
2018-04-09T01:55:14.624Z,0.00
2018-04-09T01:56:14.812Z,0.00
2018-04-09T01:57:14.650Z,0.00
2018-04-09T01:58:14.826Z,0.00
2018-04-09T01:59:14.674Z,0.00
2018-04-09T02:00:14.839Z,0.00
2018-04-09T02:01:14.713Z,0.00
2018-04-09T02:02:14.856Z,0.00
2018-04-09T02:03:14.724Z,0.00
2018-04-09T02:04:14.871Z,0.00
2018-04-09T02:05:14.746Z,0.00
2018-04-09T02:06:14.880Z,0.00
2018-04-09T02:07:14.770Z,0.00
2018-04-09T02:08:14.892Z,0.00
2018-04-09T02:09:14.797Z,0.00
2018-04-09T02:10:14.905Z,0.00
2018-04-09T02:11:14.834Z,0.00
2018-04-09T02:12:15.024Z,0.00
2018-04-09T02:13:14.847Z,0.00
2018-04-09T02:14:15.040Z,0.00
2018-04-09T02:15:14.880Z,0.00
2018-04-09T02:16:15.052Z,0.00
2018-04-09T02:17:14.886Z,0.00
2018-04-09T02:18:15.061Z,0.00
2018-04-09T02:19:14.911Z,0.00
2018-04-09T02:20:15.083Z,0.00
2018-04-09T02:21:14.936Z,0.00
2018-04-09T02:22:15.089Z,0.00
2018-04-09T02:23:14.979Z,0.00
2018-04-09T02:24:15.116Z,0.00
2018-04-09T02:25:14.986Z,0.00
2018-04-09T02:26:15.072Z,0.00
2018-04-09T02:27:15.018Z,0.00
2018-04-09T02:28:15.086Z,0.00
2018-04-09T02:29:15.040Z,0.00
2018-04-09T02:30:15.208Z,0.00
2018-04-09T02:31:15.070Z,0.00
2018-04-09T02:32:15.224Z,0.00
2018-04-09T02:33:15.091Z,0.00
2018-04-09T02:34:15.230Z,0.00
2018-04-09T02:35:15.120Z,0.00
2018-04-09T02:36:15.246Z,0.00
2018-04-09T02:37:15.135Z,0.00
2018-04-09T02:38:15.257Z,0.00
2018-04-09T02:39:15.164Z,0.00
2018-04-09T02:40:15.376Z,0.00
2018-04-09T02:41:15.195Z,0.00
2018-04-09T02:42:15.294Z,0.00
2018-04-09T02:43:15.203Z,0.00
2018-04-09T02:44:15.316Z,0.00
2018-04-09T02:45:15.226Z,0.00
2018-04-09T02:46:15.298Z,0.00
2018-04-09T02:47:15.252Z,0.00
2018-04-09T02:48:15.414Z,0.00
2018-04-09T02:49:15.280Z,0.00
2018-04-09T02:50:15.428Z,0.00
2018-04-09T02:51:15.301Z,0.00
2018-04-09T02:52:15.442Z,0.00
2018-04-09T02:53:15.325Z,0.00
2018-04-09T02:54:15.454Z,0.00
2018-04-09T02:55:15.346Z,0.00
2018-04-09T02:56:15.492Z,0.00
2018-04-09T02:57:15.370Z,0.00
2018-04-09T02:58:15.481Z,0.00
2018-04-09T02:59:15.396Z,0.00
2018-04-09T03:00:15.505Z,0.00
2018-04-09T03:01:15.435Z,0.00
2018-04-09T03:02:15.510Z,0.00
2018-04-09T03:03:15.438Z,0.00
2018-04-09T03:04:15.529Z,0.00
2018-04-09T03:05:15.461Z,0.00
2018-04-09T03:06:15.546Z,0.00
2018-04-09T03:07:15.490Z,0.00
2018-04-09T03:08:15.664Z,0.00
2018-04-09T03:09:15.522Z,0.00
2018-04-09T03:10:15.675Z,0.00
2018-04-09T03:11:15.535Z,0.00
2018-04-09T03:12:15.690Z,0.00
2018-04-09T03:13:15.564Z,0.00
2018-04-09T03:14:15.701Z,0.00
2018-04-09T03:15:15.583Z,0.00
2018-04-09T03:16:15.721Z,0.00
2018-04-09T03:17:15.605Z,0.00
2018-04-09T03:18:15.726Z,0.00
2018-04-09T03:19:15.641Z,0.00
2018-04-09T03:20:15.741Z,0.00
2018-04-09T03:21:15.681Z,0.00
2018-04-09T03:22:15.749Z,0.00
2018-04-09T03:23:15.677Z,0.00
2018-04-09T03:24:15.765Z,0.00
2018-04-09T03:25:15.701Z,0.00
2018-04-09T03:26:15.778Z,0.00
2018-04-09T03:27:15.763Z,0.00
2018-04-09T03:28:15.917Z,0.00
2018-04-09T03:29:15.746Z,0.00
2018-04-09T03:30:15.906Z,0.00
2018-04-09T03:31:15.776Z,0.00
2018-04-09T03:32:15.917Z,0.00
2018-04-09T03:33:15.799Z,0.00
2018-04-09T03:34:15.928Z,0.00
2018-04-09T03:35:15.817Z,0.00
2018-04-09T03:36:15.961Z,0.00
2018-04-09T03:37:15.843Z,0.00
2018-04-09T03:38:15.962Z,0.00
2018-04-09T03:39:15.866Z,0.00
2018-04-09T03:40:16.038Z,0.00
2018-04-09T03:41:15.890Z,0.00
2018-04-09T03:42:15.986Z,0.00
2018-04-09T03:43:15.918Z,0.00
2018-04-09T03:44:16.015Z,0.00
2018-04-09T03:45:15.933Z,0.00
2018-04-09T03:46:16.139Z,0.00
2018-04-09T03:47:15.952Z,0.00
2018-04-09T03:48:16.158Z,0.00
2018-04-09T03:49:15.988Z,0.00
2018-04-09T03:50:16.144Z,0.00
2018-04-09T03:51:16.005Z,0.00
2018-04-09T03:52:16.161Z,0.00
2018-04-09T03:53:16.021Z,0.00
2018-04-09T03:54:16.180Z,0.00
2018-04-09T03:55:16.054Z,0.00
2018-04-09T03:56:16.187Z,0.00
2018-04-09T03:57:16.067Z,0.00
2018-04-09T03:58:16.251Z,0.00
2018-04-09T03:59:16.097Z,0.00
2018-04-09T04:00:16.219Z,0.00
2018-04-09T04:01:16.119Z,0.00
2018-04-09T04:02:16.232Z,0.00
2018-04-09T04:03:16.139Z,0.00
2018-04-09T04:04:16.248Z,0.00
2018-04-09T04:05:16.166Z,0.00
2018-04-09T04:06:16.359Z,0.00
2018-04-09T04:07:16.186Z,0.00
2018-04-09T04:08:16.368Z,0.00
2018-04-09T04:09:16.208Z,0.00
2018-04-09T04:10:16.389Z,0.00
2018-04-09T04:11:16.236Z,0.00
2018-04-09T04:12:16.484Z,0.00
2018-04-09T04:13:16.257Z,0.00
2018-04-09T04:14:16.396Z,0.00
2018-04-09T04:15:16.277Z,0.00
2018-04-09T04:16:16.412Z,4.00
2018-04-09T04:17:16.306Z,4.00
2018-04-09T04:18:16.422Z,0.00
2018-04-09T04:19:16.327Z,0.00
2018-04-09T04:20:16.450Z,4.00
2018-04-09T04:21:16.345Z,0.00
2018-04-09T04:22:16.454Z,4.00
2018-04-09T04:23:16.370Z,0.00
2018-04-09T04:24:16.464Z,4.00
2018-04-09T04:25:16.393Z,4.00
2018-04-09T04:26:17.512Z,4.00
2018-04-09T04:27:16.419Z,4.00
2018-04-09T04:28:16.594Z,8.00
2018-04-09T04:29:16.438Z,8.00
2018-04-09T04:30:16.610Z,8.00
2018-04-09T04:31:16.463Z,12.00
2018-04-09T04:32:16.621Z,12.00
2018-04-09T04:33:16.491Z,16.00
2018-04-09T04:34:17.661Z,16.00
2018-04-09T04:35:16.506Z,20.00
2018-04-09T04:36:16.652Z,20.00
2018-04-09T04:37:16.529Z,28.00
2018-04-09T04:38:16.665Z,28.00
2018-04-09T04:39:16.596Z,32.00
2018-04-09T04:40:16.679Z,32.00
2018-04-09T04:41:16.571Z,40.00
2018-04-09T04:42:16.705Z,40.00
2018-04-09T04:43:16.608Z,48.00
2018-04-09T04:44:16.704Z,56.00
2018-04-09T04:45:16.622Z,60.00
2018-04-09T04:46:16.720Z,68.00
2018-04-09T04:47:16.642Z,76.00
2018-04-09T04:48:16.821Z,84.00
2018-04-09T04:49:16.680Z,92.00
2018-04-09T04:50:16.830Z,100.00
2018-04-09T04:51:16.682Z,108.00
2018-04-09T04:52:16.808Z,120.00
2018-04-09T04:53:16.710Z,132.00
2018-04-09T04:54:16.821Z,140.00
2018-04-09T04:55:16.738Z,152.00
2018-04-09T04:56:16.855Z,164.00
2018-04-09T04:57:16.773Z,176.00
2018-04-09T04:58:16.878Z,188.00
2018-04-09T04:59:16.776Z,204.00
2018-04-09T06:03:42.678Z,1584.00
2018-04-09T06:04:42.570Z,1608.00
2018-04-09T06:05:42.458Z,1632.00
2018-04-09T06:06:42.482Z,1644.00
2018-04-09T06:07:42.481Z,1668.00
2018-04-09T06:08:42.490Z,1684.00
2018-04-09T06:09:42.502Z,1700.00
2018-04-09T06:10:42.529Z,1684.00
2018-04-09T06:11:42.555Z,1684.00
2018-04-09T06:12:42.566Z,1720.00
2018-04-09T06:13:42.541Z,1748.00
2018-04-09T06:14:42.561Z,1776.00
2018-04-09T06:15:42.572Z,1820.00
2018-04-09T06:16:42.587Z,1828.00
2018-04-09T06:17:42.587Z,1808.00
2018-04-09T06:18:42.602Z,1784.00
2018-04-09T06:19:42.610Z,1756.00
2018-04-09T06:20:42.685Z,1716.00
2018-04-09T06:21:42.630Z,1700.00
2018-04-09T06:22:42.680Z,1688.00
2018-04-09T06:23:42.778Z,1692.00
2018-04-09T06:24:42.667Z,1720.00
2018-04-09T06:25:42.891Z,1752.00
2018-04-09T06:26:42.745Z,1796.00
2018-04-09T06:27:42.919Z,1852.00
2018-04-09T06:28:42.764Z,1884.00
2018-04-09T06:29:42.934Z,1912.00
2018-04-09T06:30:42.729Z,1932.00
2018-04-09T06:31:42.930Z,1968.00
2018-04-09T06:32:42.761Z,2000.00
2018-04-09T06:33:42.944Z,2048.00
2018-04-09T06:34:42.815Z,2092.00
2018-04-09T06:35:42.858Z,2132.00
2018-04-09T06:36:42.798Z,2152.00
2018-04-09T06:37:42.872Z,2164.00
2018-04-09T06:38:42.840Z,2164.00
2018-04-09T06:39:42.886Z,2152.00
2018-04-09T06:40:42.841Z,2168.00
2018-04-09T06:41:42.909Z,2192.00
2018-04-09T06:42:42.860Z,2224.00
2018-04-09T06:43:42.912Z,2264.00
2018-04-09T06:44:42.881Z,2296.00
2018-04-09T06:45:42.927Z,2312.00
2018-04-09T06:46:42.914Z,2316.00
2018-04-09T06:47:43.142Z,2304.00
2018-04-09T06:48:42.930Z,2256.00
2018-04-09T06:49:43.063Z,2208.00
2018-04-09T06:50:42.961Z,2140.00
2018-04-09T06:51:43.990Z,2116.00
2018-04-09T06:52:42.970Z,2132.00
2018-04-09T06:53:43.087Z,2188.00
2018-04-09T06:54:42.993Z,2280.00
2018-04-09T06:55:43.093Z,2416.00
2018-04-09T06:56:43.018Z,2532.00
2018-04-09T06:57:43.131Z,2600.00
2018-04-09T06:58:43.036Z,2644.00
2018-04-09T06:59:43.142Z,2688.00
2018-04-09T07:00:43.057Z,2736.00
2018-04-09T07:01:43.134Z,2768.00
2018-04-09T07:02:43.102Z,2840.00
2018-04-09T07:03:43.180Z,2908.00
2018-04-09T07:04:43.112Z,2980.00
2018-04-09T07:05:43.176Z,3056.00
2018-04-09T07:06:43.119Z,3128.00
2018-04-09T07:07:43.175Z,3132.00
2018-04-09T07:08:43.164Z,3048.00
2018-04-09T07:09:43.296Z,2996.00
2018-04-09T07:10:43.211Z,2892.00
2018-04-09T07:11:43.306Z,2844.00
2018-04-09T07:12:43.218Z,2800.00
2018-04-09T07:13:43.317Z,2772.00
2018-04-09T07:14:43.209Z,2736.00
2018-04-09T07:15:44.360Z,2744.00
2018-04-09T07:16:43.246Z,2652.00
2018-04-09T07:17:43.347Z,2612.00
2018-04-09T07:18:43.254Z,2528.00
2018-04-09T07:19:43.361Z,2436.00
2018-04-09T07:20:43.301Z,2332.00
2018-04-09T07:21:43.372Z,2280.00
2018-04-09T07:22:43.343Z,2260.00
2018-04-09T07:23:43.391Z,2260.00
2018-04-09T07:24:43.340Z,2300.00
2018-04-09T07:25:43.401Z,2364.00
2018-04-09T07:26:43.347Z,2444.00
2018-04-09T07:27:43.412Z,2524.00
2018-04-09T07:28:43.373Z,2616.00
2018-04-09T07:29:43.445Z,2692.00
2018-04-09T07:30:43.385Z,2784.00
2018-04-09T07:31:43.441Z,2844.00
2018-04-09T07:32:43.400Z,2880.00
2018-04-09T07:33:43.590Z,2964.00
2018-04-09T07:34:43.515Z,3072.00
2018-04-09T07:35:43.570Z,3220.00
2018-04-09T07:36:43.448Z,3240.00
2018-04-09T07:37:43.586Z,3188.00
2018-04-09T07:38:43.476Z,3148.00
2018-04-09T07:39:43.601Z,3152.00
2018-04-09T07:40:43.495Z,3164.00
2018-04-09T07:41:43.610Z,3140.00
2018-04-09T07:42:43.510Z,3132.00
2018-04-09T07:43:43.629Z,3132.00
2018-04-09T07:44:43.532Z,3108.00
2018-04-09T07:45:43.537Z,3108.00
2018-04-09T07:46:43.645Z,3096.00
2018-04-09T07:47:43.571Z,3080.00
2018-04-09T07:48:43.671Z,2768.00
2018-04-09T07:49:43.587Z,2692.00
2018-04-09T07:50:43.783Z,3156.00
2018-04-09T07:51:43.639Z,3188.00
2018-04-09T07:52:43.685Z,3224.00
2018-04-09T07:53:43.639Z,3164.00
2018-04-09T07:54:44.730Z,3124.00
2018-04-09T07:55:43.656Z,3288.00
2018-04-09T07:56:43.709Z,3272.00
2018-04-09T07:57:43.672Z,3248.00
2018-04-09T07:58:43.799Z,3312.00
2018-04-09T07:59:43.703Z,3284.00
2018-04-09T08:00:44.763Z,3356.00
2018-04-09T08:01:43.736Z,3448.00
2018-04-09T08:02:43.828Z,3480.00
2018-04-09T08:03:43.731Z,3464.00
2018-04-09T08:04:43.863Z,3472.00
2018-04-09T08:05:43.754Z,3504.00
2018-04-09T08:06:43.852Z,3552.00
2018-04-09T08:07:43.785Z,3656.00
2018-04-09T08:08:43.863Z,3680.00
2018-04-09T08:09:43.795Z,3576.00
2018-04-09T08:10:43.873Z,3496.00
2018-04-09T08:11:43.827Z,3444.00
2018-04-09T08:12:43.904Z,3452.00
2018-04-09T08:13:43.847Z,3524.00
2018-04-09T08:14:43.903Z,3756.00
2018-04-09T08:15:43.869Z,3992.00
2018-04-09T08:16:43.916Z,4032.00
2018-04-09T08:17:43.887Z,4260.00
2018-04-09T08:18:43.925Z,4200.00
2018-04-09T08:19:43.908Z,4096.00
2018-04-09T08:20:44.050Z,3952.00
2018-04-09T08:21:43.923Z,3904.00
2018-04-09T08:22:43.954Z,3844.00
2018-04-09T08:23:43.968Z,3996.00
2018-04-09T08:24:43.966Z,3988.00
2018-04-09T08:25:43.979Z,3980.00
2018-04-09T08:26:43.979Z,3828.00
2018-04-09T08:27:43.993Z,3856.00
2018-04-09T08:28:44.010Z,3636.00
2018-04-09T08:29:44.011Z,3688.00
2018-04-09T08:30:44.107Z,3588.00
2018-04-09T08:31:44.069Z,3364.00
2018-04-09T08:32:44.121Z,3392.00
2018-04-09T08:33:44.061Z,3208.00
2018-04-09T08:34:44.125Z,3088.00
2018-04-09T08:35:44.081Z,2992.00
2018-04-09T08:36:44.147Z,3004.00
2018-04-09T08:37:44.120Z,2928.00
2018-04-09T08:38:44.160Z,2908.00
2018-04-09T08:39:44.183Z,2556.00
2018-04-09T08:40:44.175Z,2532.00
2018-04-09T08:41:44.131Z,2736.00
2018-04-09T08:42:44.178Z,2780.00
2018-04-09T08:43:44.151Z,2804.00
2018-04-09T08:44:44.181Z,2848.00
2018-04-09T08:45:44.183Z,2776.00
2018-04-09T08:46:44.299Z,2920.00
2018-04-09T08:47:44.203Z,2968.00
2018-04-09T08:48:44.319Z,3336.00
2018-04-09T08:49:44.232Z,3396.00
2018-04-09T08:50:44.347Z,3476.00
2018-04-09T08:51:44.252Z,3584.00
2018-04-09T08:52:44.367Z,3740.00
2018-04-09T08:53:44.302Z,3804.00
2018-04-09T08:54:44.355Z,3824.00
2018-04-09T08:55:44.295Z,3764.00
2018-04-09T08:56:44.370Z,3708.00
2018-04-09T08:57:44.316Z,3768.00
2018-04-09T08:58:44.384Z,3820.00
2018-04-09T08:59:44.340Z,3852.00
2018-04-09T09:00:44.393Z,3836.00
2018-04-09T09:01:44.371Z,3856.00
2018-04-09T09:02:44.410Z,3848.00
2018-04-09T09:03:44.383Z,3840.00
2018-04-09T09:04:44.440Z,3832.00
2018-04-09T09:05:44.463Z,3824.00
2018-04-09T09:06:44.439Z,3808.00
2018-04-09T09:07:44.435Z,3816.00
2018-04-09T09:08:44.553Z,3800.00
2018-04-09T09:09:44.513Z,3788.00
2018-04-09T09:10:44.618Z,3760.00
2018-04-09T09:11:44.490Z,3744.00
2018-04-09T09:12:44.683Z,3736.00
2018-04-09T09:13:44.513Z,3784.00
2018-04-09T09:14:44.591Z,3844.00
2018-04-09T09:15:44.534Z,3904.00
2018-04-09T09:16:44.602Z,3884.00
2018-04-09T09:17:44.566Z,3808.00
2018-04-09T09:18:44.614Z,3764.00
2018-04-09T09:19:44.601Z,3768.00
2018-04-09T09:20:44.630Z,3804.00
2018-04-09T09:21:44.613Z,3816.00
2018-04-09T09:22:44.648Z,3844.00
2018-04-09T09:23:44.635Z,3880.00
2018-04-09T09:24:44.754Z,3944.00
2018-04-09T09:25:44.657Z,3968.00
2018-04-09T09:26:44.696Z,4000.00
2018-04-09T09:27:44.693Z,4004.00
2018-04-09T09:28:44.802Z,4036.00
2018-04-09T09:29:44.915Z,4068.00
2018-04-09T09:30:44.722Z,4056.00
2018-04-09T09:31:44.735Z,4124.00
2018-04-09T09:32:44.750Z,4216.00
2018-04-09T09:33:45.808Z,4272.00
2018-04-09T09:34:44.780Z,4332.00
2018-04-09T09:35:44.899Z,4336.00
2018-04-09T09:36:44.803Z,4364.00
2018-04-09T09:37:44.916Z,4460.00
2018-04-09T09:38:44.831Z,4444.00
2018-04-09T09:39:44.926Z,4400.00
2018-04-09T09:40:44.848Z,4512.00
2018-04-09T09:41:45.042Z,4676.00
2018-04-09T09:42:44.874Z,4700.00
2018-04-09T09:43:45.058Z,4932.00
2018-04-09T09:44:44.889Z,4864.00
2018-04-09T09:45:45.066Z,4736.00
2018-04-09T09:46:44.927Z,4544.00
2018-04-09T09:47:45.083Z,4380.00
2018-04-09T09:48:44.947Z,4344.00
2018-04-09T09:49:45.205Z,4384.00
2018-04-09T09:50:44.976Z,4464.00
2018-04-09T09:51:45.110Z,4760.00
2018-04-09T09:52:45.003Z,4948.00
2018-04-09T09:53:45.130Z,5052.00
2018-04-09T09:54:45.024Z,4752.00
2018-04-09T09:55:45.138Z,4628.00
2018-04-09T09:56:45.048Z,4624.00
2018-04-09T09:57:45.248Z,4820.00
2018-04-09T09:58:45.075Z,5064.00
2018-04-09T09:59:45.263Z,5176.00
2018-04-09T10:00:45.099Z,5092.00
2018-04-09T10:01:45.281Z,4964.00
2018-04-09T10:02:45.124Z,4952.00
2018-04-09T10:03:45.290Z,5072.00
2018-04-09T10:04:45.146Z,5296.00
2018-04-09T10:05:45.309Z,5460.00
2018-04-09T10:06:45.175Z,5320.00
2018-04-09T10:07:45.330Z,5252.00
2018-04-09T10:08:45.203Z,5240.00
2018-04-09T10:09:45.333Z,5212.00
2018-04-09T10:10:45.227Z,5048.00
2018-04-09T10:11:45.348Z,4876.00
2018-04-09T10:12:45.248Z,4728.00
2018-04-09T10:13:45.381Z,4704.00
2018-04-09T10:14:45.272Z,4836.00
2018-04-09T10:15:45.478Z,4760.00
2018-04-09T10:16:45.298Z,4420.00
2018-04-09T10:17:45.490Z,4288.00
2018-04-09T10:18:45.326Z,4232.00
2018-04-09T10:19:45.340Z,4120.00
2018-04-09T10:20:45.353Z,4104.00
2018-04-09T10:21:45.517Z,4072.00
2018-04-09T10:22:45.379Z,4012.00
2018-04-09T10:23:45.534Z,4048.00
2018-04-09T10:24:45.402Z,4032.00
2018-04-09T10:25:45.552Z,4084.00
2018-04-09T10:26:45.433Z,4128.00
2018-04-09T10:27:45.468Z,4220.00
2018-04-09T10:28:45.466Z,4280.00
2018-04-09T10:29:45.482Z,4420.00
2018-04-09T10:30:45.481Z,4516.00
2018-04-09T10:31:45.598Z,4396.00
2018-04-09T10:32:45.502Z,4500.00
2018-04-09T10:33:45.615Z,4476.00
2018-04-09T10:34:45.541Z,4648.00
2018-04-09T10:35:45.676Z,4884.00
2018-04-09T10:36:45.555Z,4992.00
2018-04-09T10:37:45.634Z,4892.00
2018-04-09T10:38:45.583Z,4612.00
2018-04-09T10:39:45.648Z,4452.00
2018-04-09T10:40:45.609Z,4472.00
2018-04-09T10:41:45.663Z,4532.00
2018-04-09T10:42:45.642Z,4588.00
2018-04-09T10:43:45.673Z,4672.00
2018-04-09T10:44:45.661Z,4708.00
2018-04-09T10:45:45.688Z,4840.00
2018-04-09T10:46:45.688Z,4884.00
2018-04-09T10:47:45.806Z,4612.00
2018-04-09T10:48:45.709Z,4432.00
2018-04-09T10:49:45.857Z,4404.00
2018-04-09T10:50:45.741Z,4388.00
2018-04-09T10:51:45.826Z,4312.00
2018-04-09T10:52:45.763Z,4272.00
2018-04-09T10:53:45.860Z,4176.00
2018-04-09T10:54:45.815Z,4068.00
2018-04-09T10:55:45.874Z,4092.00
2018-04-09T10:56:45.818Z,4040.00
2018-04-09T10:57:45.863Z,3972.00
2018-04-09T10:58:45.870Z,3984.00
2018-04-09T10:59:45.884Z,3932.00
2018-04-09T11:00:45.866Z,3932.00
2018-04-09T11:01:45.894Z,3916.00
2018-04-09T11:02:45.892Z,3948.00
2018-04-09T11:03:46.008Z,3992.00
2018-04-09T11:04:45.930Z,4040.00
2018-04-09T11:05:46.020Z,4156.00
2018-04-09T11:06:45.944Z,4212.00
2018-04-09T11:07:47.986Z,4248.00
2018-04-09T11:08:45.972Z,4336.00
2018-04-09T11:09:46.053Z,4372.00
2018-04-09T11:10:45.998Z,4316.00
2018-04-09T11:11:46.104Z,4316.00
2018-04-09T11:12:46.022Z,4368.00
2018-04-09T11:13:46.084Z,4392.00
2018-04-09T11:14:46.257Z,4400.00
2018-04-09T11:15:46.093Z,4404.00
2018-04-09T11:16:46.078Z,4436.00
2018-04-09T11:17:46.104Z,4528.00
2018-04-09T11:18:46.104Z,4560.00
2018-04-09T11:19:46.227Z,4612.00
2018-04-09T11:20:46.129Z,4676.00
2018-04-09T11:21:46.232Z,4696.00
2018-04-09T11:22:46.175Z,4700.00
2018-04-09T11:23:46.245Z,4688.00
2018-04-09T11:24:46.183Z,4576.00
2018-04-09T11:25:46.194Z,4528.00
2018-04-09T11:26:46.276Z,4480.00
2018-04-09T11:27:46.223Z,4464.00
2018-04-09T11:28:46.281Z,4596.00
2018-04-09T11:29:46.296Z,4632.00
2018-04-09T11:30:46.282Z,4644.00
2018-04-09T11:31:46.290Z,4684.00
2018-04-09T11:32:46.307Z,4692.00
2018-04-09T11:33:46.304Z,4696.00
2018-04-09T11:34:46.417Z,4692.00
2018-04-09T11:35:46.327Z,4632.00
2018-04-09T11:36:46.435Z,4584.00
2018-04-09T11:37:46.353Z,4676.00
2018-04-09T11:38:46.450Z,4948.00
2018-04-09T11:39:46.385Z,4940.00
2018-04-09T11:40:46.460Z,4920.00
2018-04-09T11:41:46.412Z,4984.00
2018-04-09T11:42:46.474Z,4852.00
2018-04-09T11:43:46.756Z,4780.00
2018-04-09T11:44:46.448Z,4664.00
2018-04-09T11:45:46.482Z,4636.00
2018-04-09T11:46:46.472Z,4604.00
2018-04-09T11:47:46.493Z,4576.00
2018-04-09T11:48:46.533Z,4572.00
2018-04-09T11:49:46.518Z,4560.00
2018-04-09T11:50:46.533Z,4612.00
2018-04-09T11:51:46.541Z,4640.00
2018-04-09T11:52:46.677Z,4880.00
2018-04-09T11:53:46.566Z,5304.00
2018-04-09T11:54:46.767Z,5476.00
2018-04-09T11:55:46.593Z,5668.00
2018-04-09T11:56:46.705Z,5772.00
2018-04-09T11:58:07.657Z,5732.00
2018-04-09T11:58:46.648Z,5536.00
2018-04-09T11:59:46.681Z,5308.00
2018-04-09T12:00:46.657Z,4956.00
2018-04-09T12:01:46.694Z,4608.00
2018-04-09T12:02:46.724Z,4264.00
2018-04-09T12:03:46.806Z,3956.00
2018-04-09T12:04:46.721Z,3760.00
2018-04-09T12:05:46.828Z,3560.00
2018-04-09T12:06:46.740Z,3508.00
2018-04-09T12:07:46.836Z,3436.00
2018-04-09T12:08:46.764Z,3344.00
2018-04-09T12:09:46.855Z,3208.00
2018-04-09T12:10:46.806Z,3236.00
2018-04-09T12:11:46.863Z,3284.00
2018-04-09T12:12:46.823Z,3364.00
2018-04-09T12:13:46.942Z,3392.00
2018-04-09T12:14:46.878Z,3424.00
2018-04-09T12:15:46.893Z,3496.00
2018-04-09T12:16:46.874Z,3568.00
2018-04-09T12:17:46.908Z,3652.00
2018-04-09T12:18:46.915Z,3748.00
2018-04-09T12:19:47.051Z,3844.00
2018-04-09T12:20:46.920Z,3920.00
2018-04-09T12:21:47.036Z,4008.00
2018-04-09T12:22:46.953Z,4104.00
2018-04-09T12:23:47.045Z,4220.00
2018-04-09T12:24:46.977Z,4324.00
2018-04-09T12:25:47.061Z,4440.00
2018-04-09T12:26:47.011Z,4544.00
2018-04-09T12:27:47.070Z,4600.00
2018-04-09T12:28:47.038Z,4692.00
2018-04-09T12:29:47.084Z,4740.00
2018-04-09T12:30:47.060Z,4924.00
2018-04-09T12:31:47.116Z,5084.00
2018-04-09T12:32:47.092Z,5016.00
2018-04-09T12:33:47.221Z,5312.00
2018-04-09T12:34:47.125Z,5492.00
2018-04-09T12:35:47.226Z,5648.00
2018-04-09T12:36:47.151Z,5664.00
2018-04-09T12:37:47.296Z,5528.00
2018-04-09T12:38:47.172Z,5288.00
2018-04-09T12:39:47.254Z,4960.00
2018-04-09T12:40:47.214Z,4704.00
2018-04-09T12:41:47.269Z,4452.00
2018-04-09T12:42:47.221Z,4244.00
2018-04-09T12:43:47.297Z,4040.00
2018-04-09T12:44:47.250Z,3876.00
2018-04-09T12:45:47.401Z,3768.00
2018-04-09T12:46:47.282Z,3776.00
2018-04-09T12:47:47.416Z,3732.00
2018-04-09T12:48:47.321Z,3652.00
2018-04-09T12:49:47.428Z,3560.00
2018-04-09T12:50:47.353Z,3588.00
2018-04-09T12:51:47.446Z,3648.00
2018-04-09T12:52:47.361Z,3708.00
2018-04-09T12:53:52.179Z,3744.00
2018-04-09T12:54:47.397Z,3816.00
2018-04-09T12:55:47.465Z,3876.00
2018-04-09T12:56:47.413Z,3960.00
2018-04-09T12:57:54.181Z,3984.00
2018-04-09T12:58:47.431Z,3972.00
2018-04-09T12:59:48.515Z,3972.00
2018-04-09T13:00:47.464Z,3988.00
2018-04-09T13:01:47.494Z,3976.00
2018-04-09T13:02:47.493Z,3964.00
2018-04-09T13:03:47.635Z,4004.00
2018-04-09T13:04:47.534Z,4008.00
2018-04-09T13:05:47.534Z,4008.00
2018-04-09T13:06:47.544Z,4000.00
2018-04-09T13:07:47.637Z,3980.00
2018-04-09T13:08:47.571Z,3984.00
2018-04-09T13:09:47.658Z,3972.00
2018-04-09T13:10:47.624Z,3968.00
2018-04-09T13:11:47.654Z,3944.00
2018-04-09T13:12:47.623Z,3932.00
2018-04-09T13:13:47.670Z,3920.00
2018-04-09T13:14:47.653Z,3932.00
2018-04-09T13:15:47.690Z,4016.00
2018-04-09T13:16:47.699Z,4040.00
2018-04-09T13:17:49.701Z,4100.00
2018-04-09T13:18:47.729Z,4132.00
2018-04-09T13:19:48.844Z,4144.00
2018-04-09T13:20:47.737Z,4060.00
2018-04-09T13:21:49.781Z,3904.00
2018-04-09T13:22:47.761Z,3828.00
2018-04-09T13:23:47.893Z,3772.00
2018-04-09T13:24:47.790Z,3728.00
2018-04-09T13:25:47.804Z,3732.00
2018-04-09T13:26:48.904Z,3744.00
2018-04-09T13:27:47.831Z,3744.00
2018-04-09T13:28:47.994Z,3776.00
2018-04-09T13:29:47.859Z,3812.00
2018-04-09T13:30:47.946Z,3852.00
2018-04-09T13:31:47.902Z,3864.00
2018-04-09T13:32:47.896Z,3912.00
2018-04-09T13:33:47.909Z,3952.00
2018-04-09T13:34:47.924Z,3980.00